EDDE/ERF METAR and TAF weather

Enter ICAO airport designator
Station Type Date Time Source
EDDE METAR 2019/02/23 02:50 UTC NOAA

EDDE 230250Z 11002KT CAVOK M03/M04 Q1041


Station Type Date Time Source
EDDE Decoded METAR 2019/02/23 02:50 UTC NOAA

Erfurt-Bindersleben, Germany (EDDE) 50-59N 010-58E 322M
Feb 22, 2019 - 09:50 PM EST / 2019.02.23 0250 UTC
Wind: from the ESE (110 degrees) at 2 MPH (2 KT):0
Visibility: greater than 7 mile(s):0
Temperature: 26 F (-3 C)
Dew Point: 24 F (-4 C)
Relative Humidity: 92%
Pressure (altimeter): 30.74 in. Hg (1041 hPa)
ob: EDDE 230250Z 11002KT CAVOK M03/M04 Q1041
cycle: 3

Station Type Date Time Source
EDDE TAF 2019/02/22 18:27 UTC NOAA

TAF TAF COR EDDE 221719Z 2218/2318 06006KT 9999 BKN008
BECMG 2218/2222 15004KT NSC
BECMG 2311/2313 07005KT


Example: see airport list